createdAt,value
2017-11-20T00:00:41.817Z,1017.05
2017-11-20T00:01:41.808Z,1017.02
2017-11-20T00:02:41.800Z,1017.00
2017-11-20T00:03:41.792Z,1016.97
2017-11-20T00:04:41.790Z,1017.02
2017-11-20T00:05:41.787Z,1016.96
2017-11-20T00:06:41.774Z,1016.90
2017-11-20T00:07:41.769Z,1016.90
2017-11-20T00:08:41.768Z,1016.89
2017-11-20T00:09:41.753Z,1016.94
2017-11-20T00:10:41.745Z,1016.93
2017-11-20T00:11:41.739Z,1016.83
2017-11-20T00:12:41.731Z,1016.85
2017-11-20T00:13:41.924Z,1016.84
2017-11-20T00:14:41.712Z,1016.87
2017-11-20T00:15:41.704Z,1016.84
2017-11-20T00:16:41.697Z,1016.79
2017-11-20T00:17:41.689Z,1016.82
2017-11-20T00:18:41.681Z,1016.75
2017-11-20T00:19:41.676Z,1016.76
2017-11-20T00:20:41.667Z,1016.74
2017-11-20T00:21:41.660Z,1016.77
2017-11-20T00:22:41.656Z,1016.78
2017-11-20T00:23:41.649Z,1016.82
2017-11-20T00:24:41.642Z,1016.76
2017-11-20T00:25:41.633Z,1016.78
2017-11-20T00:26:41.627Z,1016.78
2017-11-20T00:27:41.617Z,1016.73
2017-11-20T00:28:41.611Z,1016.69
2017-11-20T00:29:41.603Z,1016.66
2017-11-20T00:30:41.614Z,1016.66
2017-11-20T00:31:41.586Z,1016.69
2017-11-20T00:32:41.577Z,1016.67
2017-11-20T00:33:41.568Z,1016.73
2017-11-20T00:34:41.565Z,1016.71
2017-11-20T00:35:41.560Z,1016.69
2017-11-20T00:36:41.551Z,1016.71
2017-11-20T00:37:41.543Z,1016.75
2017-11-20T00:38:41.531Z,1016.76
2017-11-20T00:39:41.524Z,1016.81
2017-11-20T00:40:41.518Z,1016.74
2017-11-20T00:41:41.511Z,1016.73
2017-11-20T00:42:41.504Z,1016.69
2017-11-20T00:43:41.495Z,1016.74
2017-11-20T00:44:41.487Z,1016.79
2017-11-20T00:45:41.478Z,1016.73
2017-11-20T00:46:41.476Z,1016.74
2017-11-20T00:47:41.468Z,1016.76
2017-11-20T00:48:41.462Z,1016.78
2017-11-20T00:49:41.452Z,1016.74
2017-11-20T00:50:41.445Z,1016.80
2017-11-20T00:51:41.439Z,1016.77
2017-11-20T00:52:41.429Z,1016.78
2017-11-20T00:53:41.422Z,1016.77
2017-11-20T00:54:41.411Z,1016.77
2017-11-20T00:55:41.403Z,1016.85
2017-11-20T00:56:41.394Z,1016.85
2017-11-20T00:57:41.386Z,1016.82
2017-11-20T00:58:41.395Z,1016.81
2017-11-20T00:59:41.372Z,1016.89
2017-11-20T01:00:41.366Z,1016.86
2017-11-20T01:01:41.358Z,1016.87
2017-11-20T01:02:41.354Z,1016.84
2017-11-20T01:03:41.347Z,1016.86
2017-11-20T01:04:41.342Z,1016.84
2017-11-20T01:05:41.331Z,1016.89
2017-11-20T01:06:41.324Z,1016.88
2017-11-20T01:07:41.317Z,1016.86
2017-11-20T01:08:41.310Z,1016.89
2017-11-20T01:09:41.301Z,1016.90
2017-11-20T01:10:41.289Z,1016.83
2017-11-20T01:11:41.281Z,1016.86
2017-11-20T01:12:41.275Z,1016.91
2017-11-20T01:13:41.267Z,1016.87
2017-11-20T01:14:41.258Z,1016.86
2017-11-20T01:15:41.251Z,1016.92
2017-11-20T01:16:41.243Z,1016.89
2017-11-20T01:17:41.234Z,1016.91
2017-11-20T01:18:41.231Z,1016.96
2017-11-20T01:19:41.229Z,1016.90
2017-11-20T01:20:41.217Z,1016.90
2017-11-20T01:21:41.210Z,1016.83
2017-11-20T01:22:41.201Z,1016.82
2017-11-20T01:23:41.194Z,1016.81
2017-11-20T01:24:41.187Z,1016.84
2017-11-20T01:25:41.180Z,1016.86
2017-11-20T01:26:41.168Z,1016.82
2017-11-20T01:27:41.158Z,1016.85
2017-11-20T01:28:41.153Z,1016.84
2017-11-20T01:29:41.142Z,1016.85
2017-11-20T01:30:41.135Z,1016.84
2017-11-20T01:31:41.129Z,1016.80
2017-11-20T01:32:41.122Z,1016.77
2017-11-20T01:33:41.112Z,1016.82
2017-11-20T01:34:41.109Z,1016.76
2017-11-20T01:35:41.101Z,1016.76
2017-11-20T01:36:41.094Z,1016.74
2017-11-20T01:37:41.086Z,1016.75
2017-11-20T01:38:41.073Z,1016.73
2017-11-20T01:39:41.067Z,1016.75
2017-11-20T01:40:41.060Z,1016.75
2017-11-20T01:41:41.049Z,1016.77
2017-11-20T01:42:41.048Z,1016.76
2017-11-20T01:43:41.040Z,1016.73
2017-11-20T01:44:41.035Z,1016.71
2017-11-20T01:45:41.025Z,1016.67
2017-11-20T01:46:41.016Z,1016.75
2017-11-20T01:47:41.008Z,1016.77
2017-11-20T01:48:41.000Z,1016.74
2017-11-20T01:49:40.994Z,1016.68
2017-11-20T01:50:40.981Z,1016.66
2017-11-20T01:51:40.973Z,1016.62
2017-11-20T01:52:40.965Z,1016.69
2017-11-20T01:53:40.958Z,1016.71
2017-11-20T01:54:40.951Z,1016.68
2017-11-20T01:55:40.944Z,1016.66
2017-11-20T01:56:40.936Z,1016.66
2017-11-20T01:57:40.926Z,1016.65
2017-11-20T01:58:40.925Z,1016.66
2017-11-20T01:59:40.918Z,1016.65
2017-11-20T02:00:40.908Z,1016.61
2017-11-20T02:01:40.902Z,1016.60
2017-11-20T02:02:40.892Z,1016.59
2017-11-20T02:03:40.890Z,1016.56
2017-11-20T02:04:40.878Z,1016.56
2017-11-20T02:05:40.870Z,1016.58
2017-11-20T02:06:40.857Z,1016.60
2017-11-20T02:07:40.855Z,1016.66
2017-11-20T02:08:40.843Z,1016.67
2017-11-20T02:09:40.851Z,1016.62
2017-11-20T02:10:40.827Z,1016.62
2017-11-20T02:11:40.819Z,1016.59
2017-11-20T02:12:40.813Z,1016.57
2017-11-20T02:13:40.804Z,1016.59
2017-11-20T02:14:40.799Z,1016.55
2017-11-20T02:15:40.792Z,1016.55
2017-11-20T02:16:40.786Z,1016.48
2017-11-20T02:17:40.777Z,1016.46
2017-11-20T02:18:40.769Z,1016.39
2017-11-20T02:19:40.762Z,1016.43
2017-11-20T02:20:40.760Z,1016.37
2017-11-20T02:21:40.746Z,1016.35
2017-11-20T02:22:40.734Z,1016.36
2017-11-20T02:23:40.726Z,1016.39
2017-11-20T02:24:40.719Z,1016.37
2017-11-20T02:25:40.719Z,1016.41
2017-11-20T02:26:40.702Z,1016.43
2017-11-20T02:27:40.695Z,1016.45
2017-11-20T02:28:40.689Z,1016.50
2017-11-20T02:29:40.680Z,1016.49
2017-11-20T02:30:40.675Z,1016.48
2017-11-20T02:31:40.670Z,1016.51
2017-11-20T02:32:40.662Z,1016.45
2017-11-20T02:33:40.653Z,1016.46
2017-11-20T02:34:40.643Z,1016.43
2017-11-20T02:35:40.638Z,1016.50
2017-11-20T02:36:40.629Z,1016.44
2017-11-20T02:37:40.621Z,1016.47
2017-11-20T02:38:40.609Z,1016.43
2017-11-20T02:39:40.602Z,1016.44
2017-11-20T02:40:40.595Z,1016.42
2017-11-20T02:41:40.584Z,1016.40
2017-11-20T02:42:40.583Z,1016.37
2017-11-20T02:43:40.574Z,1016.34
2017-11-20T02:44:40.566Z,1016.35
2017-11-20T02:45:40.561Z,1016.38
2017-11-20T02:46:40.548Z,1016.37
2017-11-20T02:47:40.537Z,1016.39
2017-11-20T02:48:40.533Z,1016.41
2017-11-20T02:49:40.531Z,1016.38
2017-11-20T02:50:40.512Z,1016.35
2017-11-20T02:51:40.509Z,1016.38
2017-11-20T02:52:40.499Z,1016.35
2017-11-20T02:53:40.490Z,1016.37
2017-11-20T02:54:40.490Z,1016.38
2017-11-20T02:55:40.480Z,1016.37
2017-11-20T02:56:40.471Z,1016.42
2017-11-20T02:57:40.461Z,1016.35
2017-11-20T02:58:40.456Z,1016.37
2017-11-20T02:59:40.447Z,1016.38
2017-11-20T03:00:40.438Z,1016.34
2017-11-20T03:01:40.431Z,1016.36
2017-11-20T03:02:40.418Z,1016.34
2017-11-20T03:03:40.410Z,1016.30
2017-11-20T03:04:40.402Z,1016.29
2017-11-20T03:05:40.401Z,1016.30
2017-11-20T03:06:40.386Z,1016.32
2017-11-20T03:07:40.378Z,1016.36
2017-11-20T03:08:40.372Z,1016.34
2017-11-20T03:09:40.361Z,1016.31
2017-11-20T03:10:40.358Z,1016.27
2017-11-20T03:11:40.351Z,1016.32
2017-11-20T03:12:40.342Z,1016.29
2017-11-20T03:13:40.334Z,1016.26
2017-11-20T03:14:40.328Z,1016.26
2017-11-20T03:15:40.318Z,1016.26
2017-11-20T03:16:40.312Z,1016.28
2017-11-20T03:17:40.303Z,1016.32
2017-11-20T03:18:40.289Z,1016.32
2017-11-20T03:19:40.283Z,1016.31
2017-11-20T03:20:40.277Z,1016.22
2017-11-20T03:21:40.265Z,1016.28
2017-11-20T03:22:40.259Z,1016.26
2017-11-20T03:23:40.257Z,1016.22
2017-11-20T03:24:40.242Z,1016.21
2017-11-20T03:25:40.234Z,1016.24
2017-11-20T03:26:40.231Z,1016.19
2017-11-20T03:27:40.223Z,1016.21
2017-11-20T03:28:40.219Z,1016.23
2017-11-20T03:29:40.219Z,1016.30
2017-11-20T03:30:40.204Z,1016.23
2017-11-20T03:31:40.189Z,1016.23
2017-11-20T03:32:40.181Z,1016.26
2017-11-20T03:33:40.173Z,1016.26
2017-11-20T03:34:40.160Z,1016.26
2017-11-20T03:35:40.153Z,1016.25
2017-11-20T03:36:40.145Z,1016.19
2017-11-20T03:37:40.136Z,1016.22
2017-11-20T03:38:40.128Z,1016.20
2017-11-20T03:39:40.119Z,1016.26
2017-11-20T03:40:40.111Z,1016.26
2017-11-20T03:41:40.103Z,1016.26
2017-11-20T03:42:40.099Z,1016.28
2017-11-20T03:43:40.090Z,1016.28
2017-11-20T03:44:40.082Z,1016.26
2017-11-20T03:45:40.074Z,1016.28
2017-11-20T03:46:40.061Z,1016.33
2017-11-20T03:47:40.052Z,1016.35
2017-11-20T03:48:40.044Z,1016.30
2017-11-20T03:49:40.034Z,1016.30
2017-11-20T03:50:40.031Z,1016.34
2017-11-20T03:51:40.023Z,1016.40
2017-11-20T03:52:40.014Z,1016.41
2017-11-20T03:53:40.005Z,1016.35
2017-11-20T03:54:39.998Z,1016.35
2017-11-20T03:55:39.988Z,1016.36
2017-11-20T03:56:39.982Z,1016.42
2017-11-20T03:57:39.972Z,1016.37
2017-11-20T03:58:39.959Z,1016.35
2017-11-20T03:59:39.952Z,1016.41
2017-11-20T04:00:39.944Z,1016.36
2017-11-20T04:01:39.936Z,1016.35
2017-11-20T04:02:39.925Z,1016.36
2017-11-20T04:03:39.919Z,1016.35
2017-11-20T04:04:39.911Z,1016.37
2017-11-20T04:05:39.901Z,1016.39
2017-11-20T04:06:39.896Z,1016.37
2017-11-20T04:07:39.889Z,1016.42
2017-11-20T04:08:39.881Z,1016.39
2017-11-20T04:09:39.871Z,1016.36
2017-11-20T04:10:39.865Z,1016.36
2017-11-20T04:11:39.856Z,1016.31
2017-11-20T04:12:39.847Z,1016.33
2017-11-20T04:13:39.839Z,1016.29
2017-11-20T04:14:39.827Z,1016.30
2017-11-20T04:15:39.818Z,1016.27
2017-11-20T04:16:39.810Z,1016.25
2017-11-20T04:17:39.801Z,1016.21
2017-11-20T04:18:39.803Z,1016.19
2017-11-20T04:19:39.785Z,1016.26
2017-11-20T04:20:39.776Z,1016.27
2017-11-20T04:21:39.768Z,1016.25
2017-11-20T04:22:39.764Z,1016.22
2017-11-20T04:23:39.757Z,1016.22
2017-11-20T04:24:39.747Z,1016.21
2017-11-20T04:25:39.740Z,1016.21
2017-11-20T04:26:39.731Z,1016.19
2017-11-20T04:27:39.723Z,1016.23
2017-11-20T04:28:39.714Z,1016.17
2017-11-20T04:29:39.704Z,1016.17
2017-11-20T04:30:39.695Z,1016.17
2017-11-20T04:31:39.685Z,1016.21
2017-11-20T04:32:39.683Z,1016.17
2017-11-20T04:33:39.669Z,1016.16
2017-11-20T04:34:39.659Z,1016.18
2017-11-20T04:35:39.652Z,1016.19
2017-11-20T04:36:39.644Z,1016.21
2017-11-20T04:37:39.634Z,1016.11
2017-11-20T04:38:39.632Z,1016.19
2017-11-20T04:39:39.627Z,1016.20
2017-11-20T04:40:39.615Z,1016.21
2017-11-20T04:41:39.606Z,1016.17
2017-11-20T04:42:39.599Z,1016.17
2017-11-20T04:43:39.589Z,1016.12
2017-11-20T04:44:39.603Z,1016.19
2017-11-20T04:45:39.571Z,1016.16
2017-11-20T04:46:39.560Z,1016.13
2017-11-20T04:47:39.553Z,1016.15
2017-11-20T04:48:39.544Z,1016.13
2017-11-20T04:49:39.534Z,1016.08
2017-11-20T04:50:39.532Z,1016.13
2017-11-20T04:51:39.522Z,1016.13
2017-11-20T04:52:39.514Z,1016.16
2017-11-20T04:53:39.504Z,1016.18
2017-11-20T04:54:39.493Z,1016.12
2017-11-20T04:55:39.485Z,1016.14
2017-11-20T04:56:39.477Z,1016.18
2017-11-20T04:57:39.468Z,1016.16
2017-11-20T04:58:39.465Z,1016.15
2017-11-20T04:59:39.453Z,1016.16
2017-11-20T05:00:39.444Z,1016.06
2017-11-20T05:01:39.435Z,1016.08
2017-11-20T05:02:39.430Z,1016.09
2017-11-20T05:03:39.424Z,1016.05
2017-11-20T05:04:39.416Z,1016.08
2017-11-20T05:05:39.406Z,1016.07
2017-11-20T05:06:39.398Z,1016.14
2017-11-20T05:07:39.389Z,1016.10
2017-11-20T05:08:39.382Z,1016.14
2017-11-20T05:09:39.374Z,1016.10
2017-11-20T05:10:39.362Z,1016.12
2017-11-20T05:11:39.357Z,1016.06
2017-11-20T05:12:39.344Z,1016.06
2017-11-20T05:13:39.334Z,1016.07
2017-11-20T05:14:39.328Z,1016.07
2017-11-20T05:15:39.319Z,1016.03
2017-11-20T05:16:39.311Z,1016.10
2017-11-20T05:17:39.302Z,1016.03
2017-11-20T05:18:39.298Z,1016.05
2017-11-20T05:19:39.290Z,1015.96
2017-11-20T05:20:39.281Z,1016.03
2017-11-20T05:21:39.273Z,1015.99
2017-11-20T05:22:39.265Z,1016.03
2017-11-20T05:23:39.257Z,1015.98
2017-11-20T05:24:39.248Z,1016.06
2017-11-20T05:25:39.238Z,1016.03
2017-11-20T05:26:39.227Z,1016.00
2017-11-20T05:27:39.219Z,1015.99
2017-11-20T05:28:39.211Z,1016.05
2017-11-20T05:29:39.206Z,1015.98
2017-11-20T05:30:39.192Z,1016.00
2017-11-20T05:31:39.184Z,1015.99
2017-11-20T05:32:39.176Z,1015.91
2017-11-20T05:33:39.171Z,1015.98
2017-11-20T05:34:39.164Z,1015.98
2017-11-20T05:35:39.155Z,1016.02
2017-11-20T05:36:39.147Z,1016.03
2017-11-20T05:37:39.138Z,1015.96
2017-11-20T05:38:39.132Z,1016.01
2017-11-20T05:39:39.120Z,1016.01
2017-11-20T05:40:39.116Z,1016.05
2017-11-20T05:41:39.104Z,1016.05
2017-11-20T05:42:39.092Z,1016.08
2017-11-20T05:43:39.083Z,1016.04
2017-11-20T05:44:39.076Z,1016.03
2017-11-20T05:45:39.066Z,1016.07
2017-11-20T05:46:39.063Z,1016.09
2017-11-20T05:47:39.048Z,1016.08
2017-11-20T05:48:39.041Z,1016.08
2017-11-20T05:49:39.031Z,1016.10
2017-11-20T05:50:39.028Z,1016.10
2017-11-20T05:51:39.021Z,1016.14
2017-11-20T05:52:39.010Z,1016.08
2017-11-20T05:53:39.001Z,1016.09
2017-11-20T05:54:38.993Z,1016.11
2017-11-20T05:55:38.986Z,1016.07
2017-11-20T05:56:38.977Z,1016.10
2017-11-20T05:57:38.968Z,1016.10
2017-11-20T05:58:38.956Z,1016.07
2017-11-20T05:59:38.947Z,1016.11
2017-11-20T06:00:38.940Z,1016.13
2017-11-20T06:01:38.946Z,1016.13
2017-11-20T06:02:38.928Z,1016.17
2017-11-20T06:03:38.913Z,1016.06
2017-11-20T06:04:38.905Z,1016.10
2017-11-20T06:05:38.897Z,1016.10
2017-11-20T06:06:38.892Z,1016.16
2017-11-20T06:07:38.882Z,1016.14
2017-11-20T06:08:38.876Z,1016.11
2017-11-20T06:09:38.867Z,1016.13
2017-11-20T06:10:38.859Z,1016.11
2017-11-20T06:11:38.853Z,1016.12
2017-11-20T06:12:38.843Z,1016.10
2017-11-20T06:13:38.832Z,1016.06
2017-11-20T06:14:38.822Z,1016.08
2017-11-20T06:15:38.811Z,1016.05
2017-11-20T06:16:38.805Z,1016.03
2017-11-20T06:17:38.795Z,1016.04
2017-11-20T06:18:38.787Z,1016.05
2017-11-20T06:19:38.779Z,1016.02
2017-11-20T06:20:38.770Z,1015.98
2017-11-20T06:21:38.763Z,1016.02
2017-11-20T06:22:38.758Z,1016.00
2017-11-20T06:23:38.749Z,1016.02
2017-11-20T06:24:38.742Z,1016.01
2017-11-20T06:25:38.732Z,1016.01
2017-11-20T06:26:38.726Z,1015.97
2017-11-20T06:27:38.716Z,1015.96
2017-11-20T06:28:38.708Z,1016.02
2017-11-20T06:29:38.701Z,1016.03
2017-11-20T06:30:38.688Z,1016.02
2017-11-20T06:31:38.678Z,1016.09
2017-11-20T06:32:38.673Z,1016.10
2017-11-20T06:33:38.662Z,1016.04
2017-11-20T06:34:38.653Z,1016.06
2017-11-20T06:35:38.647Z,1016.11
2017-11-20T06:36:38.638Z,1016.11
2017-11-20T06:37:38.630Z,1016.15
2017-11-20T06:38:38.626Z,1016.15
2017-11-20T06:39:38.616Z,1016.16
2017-11-20T06:40:38.608Z,1016.13
2017-11-20T06:41:38.603Z,1016.16
2017-11-20T06:42:38.591Z,1016.13
2017-11-20T06:43:38.582Z,1016.14
2017-11-20T06:44:38.577Z,1016.15
2017-11-20T06:45:38.567Z,1016.12
2017-11-20T06:46:38.555Z,1016.12
2017-11-20T06:47:38.545Z,1016.17
2017-11-20T06:48:38.537Z,1016.18
2017-11-20T06:49:38.529Z,1016.17
2017-11-20T06:50:38.520Z,1016.18
2017-11-20T06:51:38.513Z,1016.16
2017-11-20T06:52:38.506Z,1016.12
2017-11-20T06:53:38.495Z,1016.14
2017-11-20T06:54:38.492Z,1016.20
2017-11-20T06:55:38.484Z,1016.13
2017-11-20T06:56:38.478Z,1016.18
2017-11-20T06:57:38.465Z,1016.19
2017-11-20T06:58:38.455Z,1016.24
2017-11-20T06:59:38.447Z,1016.27
2017-11-20T07:00:38.438Z,1016.24
2017-11-20T07:01:38.429Z,1016.23
2017-11-20T07:02:38.427Z,1016.24
2017-11-20T07:03:38.417Z,1016.23
2017-11-20T07:04:38.409Z,1016.31
2017-11-20T07:05:38.401Z,1016.25
2017-11-20T07:06:38.392Z,1016.34
2017-11-20T07:07:38.384Z,1016.35
2017-11-20T07:08:38.376Z,1016.31
2017-11-20T07:09:38.367Z,1016.32
2017-11-20T07:10:38.355Z,1016.32
2017-11-20T07:11:38.347Z,1016.36
2017-11-20T07:12:38.340Z,1016.36
2017-11-20T07:13:38.331Z,1016.36
2017-11-20T07:14:38.321Z,1016.39
2017-11-20T07:15:38.315Z,1016.37
2017-11-20T07:16:38.306Z,1016.35
2017-11-20T07:17:38.298Z,1016.35
2017-11-20T07:18:38.294Z,1016.35
2017-11-20T07:19:38.287Z,1016.33
2017-11-20T07:20:38.277Z,1016.27
2017-11-20T07:21:38.268Z,1016.31
2017-11-20T07:22:38.261Z,1016.32
2017-11-20T07:23:38.251Z,1016.30
2017-11-20T07:24:38.245Z,1016.26
2017-11-20T07:25:38.235Z,1016.25
2017-11-20T07:26:38.222Z,1016.29
2017-11-20T07:27:38.214Z,1016.24
2017-11-20T07:28:38.211Z,1016.21
2017-11-20T07:29:38.198Z,1016.23
2017-11-20T07:30:38.190Z,1016.20
2017-11-20T07:31:38.183Z,1016.19
2017-11-20T07:32:38.175Z,1016.17
2017-11-20T07:33:38.166Z,1016.19
2017-11-20T07:34:38.162Z,1016.26
2017-11-20T07:35:38.154Z,1016.24
2017-11-20T07:36:38.146Z,1016.22
2017-11-20T07:37:38.136Z,1016.23
2017-11-20T07:38:38.129Z,1016.24
2017-11-20T07:39:38.121Z,1016.26
2017-11-20T07:40:38.113Z,1016.22
2017-11-20T07:41:38.104Z,1016.29
2017-11-20T07:42:38.092Z,1016.32
2017-11-20T07:43:38.084Z,1016.31
2017-11-20T07:44:38.076Z,1016.29
2017-11-20T07:45:38.067Z,1016.23
2017-11-20T07:46:38.059Z,1016.23
2017-11-20T07:47:38.049Z,1016.18
2017-11-20T07:48:38.046Z,1016.15
2017-11-20T07:49:38.033Z,1016.20
2017-11-20T07:50:38.032Z,1016.19
2017-11-20T07:51:38.021Z,1016.24
2017-11-20T07:52:38.014Z,1016.23
2017-11-20T07:53:38.006Z,1016.25
2017-11-20T07:54:37.998Z,1016.23
2017-11-20T07:55:37.989Z,1016.25
2017-11-20T07:56:37.984Z,1016.25
2017-11-20T07:57:37.973Z,1016.20
2017-11-20T07:58:37.960Z,1016.17
2017-11-20T07:59:37.954Z,1016.19
2017-11-20T08:00:37.950Z,1016.20
2017-11-20T08:01:37.937Z,1016.17
2017-11-20T08:02:37.931Z,1016.19
2017-11-20T08:03:37.926Z,1016.24
2017-11-20T08:04:37.920Z,1016.21
2017-11-20T08:05:37.910Z,1016.20
2017-11-20T08:06:37.894Z,1016.16
2017-11-20T08:07:37.888Z,1016.18
2017-11-20T08:08:37.879Z,1016.14
2017-11-20T08:09:37.872Z,1016.10
2017-11-20T08:10:37.864Z,1016.10
2017-11-20T08:11:37.855Z,1016.11
2017-11-20T08:12:37.847Z,1016.05
2017-11-20T08:13:37.840Z,1016.00
2017-11-20T08:14:37.835Z,1016.04
2017-11-20T08:15:37.827Z,1016.04
2017-11-20T08:16:37.819Z,1016.04
2017-11-20T08:17:37.808Z,1016.06
2017-11-20T08:18:37.800Z,1016.02
2017-11-20T08:19:37.795Z,1016.06
2017-11-20T08:20:37.786Z,1016.01
2017-11-20T08:21:37.777Z,1016.06
2017-11-20T08:22:37.766Z,1015.97
2017-11-20T08:23:37.759Z,1016.00
2017-11-20T08:24:37.750Z,1015.96
2017-11-20T08:25:37.740Z,1015.91
2017-11-20T08:26:37.733Z,1015.87
2017-11-20T08:27:37.725Z,1015.86
2017-11-20T08:28:37.718Z,1015.91
2017-11-20T08:29:37.710Z,1015.93
2017-11-20T08:30:37.704Z,1015.92
2017-11-20T08:31:37.698Z,1015.95
2017-11-20T08:32:37.690Z,1015.89
2017-11-20T08:33:37.681Z,1015.91
2017-11-20T08:34:37.675Z,1015.93
2017-11-20T08:35:37.667Z,1015.89
2017-11-20T08:36:37.658Z,1015.87
2017-11-20T08:37:37.648Z,1015.87
2017-11-20T08:38:37.648Z,1015.82
2017-11-20T08:39:37.628Z,1015.81
2017-11-20T08:40:37.621Z,1015.75
2017-11-20T08:41:37.629Z,1015.83
2017-11-20T08:42:37.605Z,1015.73
2017-11-20T08:43:37.598Z,1015.73
2017-11-20T08:44:37.593Z,1015.79
2017-11-20T08:45:37.584Z,1015.76
2017-11-20T08:46:37.578Z,1015.82
2017-11-20T08:47:37.571Z,1015.78
2017-11-20T08:48:37.561Z,1015.78
2017-11-20T08:49:37.553Z,1015.75
2017-11-20T08:50:37.546Z,1015.73
2017-11-20T08:51:37.537Z,1015.69
2017-11-20T08:52:37.532Z,1015.68
2017-11-20T08:53:37.523Z,1015.65
2017-11-20T08:54:37.511Z,1015.64
2017-11-20T08:55:37.503Z,1015.68
2017-11-20T08:56:37.496Z,1015.70
2017-11-20T08:57:37.487Z,1015.69
2017-11-20T08:58:37.480Z,1015.62
2017-11-20T08:59:37.474Z,1015.58
2017-11-20T09:00:37.465Z,1015.57
2017-11-20T09:01:37.454Z,1015.57
2017-11-20T09:02:37.453Z,1015.57
2017-11-20T09:03:37.446Z,1015.54
2017-11-20T09:04:37.435Z,1015.53
2017-11-20T09:05:37.432Z,1015.58
2017-11-20T09:06:37.417Z,1015.61
2017-11-20T09:07:37.408Z,1015.57
2017-11-20T09:08:37.403Z,1015.62
2017-11-20T09:09:37.392Z,1015.54
2017-11-20T09:10:37.390Z,1015.50
2017-11-20T09:11:37.380Z,1015.56
2017-11-20T09:12:37.374Z,1015.47
2017-11-20T09:13:37.366Z,1015.50
2017-11-20T09:14:37.356Z,1015.50
2017-11-20T09:15:37.350Z,1015.54
2017-11-20T09:16:37.343Z,1015.51
2017-11-20T09:17:37.332Z,1015.45
2017-11-20T09:18:37.321Z,1015.46
2017-11-20T09:19:37.313Z,1015.42
2017-11-20T09:20:37.305Z,1015.39
2017-11-20T09:21:37.296Z,1015.43
2017-11-20T09:22:37.290Z,1015.37
2017-11-20T09:23:37.281Z,1015.43
2017-11-20T09:24:37.275Z,1015.38
2017-11-20T09:25:37.265Z,1015.39
2017-11-20T09:26:37.261Z,1015.34
2017-11-20T09:27:37.257Z,1015.36
2017-11-20T09:28:37.245Z,1015.30
2017-11-20T09:29:37.237Z,1015.25
2017-11-20T09:30:37.231Z,1015.24
2017-11-20T09:31:37.226Z,1015.25
2017-11-20T09:32:37.215Z,1015.22
2017-11-20T09:33:37.207Z,1015.21
2017-11-20T09:34:37.193Z,1015.22
2017-11-20T09:35:37.189Z,1015.21
2017-11-20T09:36:37.179Z,1015.17
2017-11-20T09:37:37.171Z,1015.14
2017-11-20T09:38:37.161Z,1015.11
2017-11-20T09:39:37.153Z,1015.08
2017-11-20T09:40:37.147Z,1014.98
2017-11-20T09:41:37.140Z,1014.98
2017-11-20T09:42:37.135Z,1015.07
2017-11-20T09:43:37.126Z,1015.04
2017-11-20T09:44:37.118Z,1015.00
2017-11-20T09:45:37.114Z,1015.03
2017-11-20T09:46:37.103Z,1015.10
2017-11-20T09:47:37.095Z,1015.04
2017-11-20T09:48:37.087Z,1014.99
2017-11-20T09:49:37.078Z,1014.94
2017-11-20T09:50:37.066Z,1014.92
2017-11-20T09:51:37.060Z,1014.91
2017-11-20T09:52:37.050Z,1014.80
2017-11-20T09:53:37.041Z,1014.82
2017-11-20T09:54:37.038Z,1014.78
2017-11-20T09:55:37.027Z,1014.78
2017-11-20T09:56:37.237Z,1014.71
2017-11-20T09:57:37.010Z,1014.72
2017-11-20T09:58:37.005Z,1014.71
2017-11-20T09:59:36.999Z,1014.69
2017-11-20T10:00:36.991Z,1014.67
2017-11-20T10:01:36.980Z,1014.63
2017-11-20T10:02:36.973Z,1014.62
2017-11-20T10:03:36.966Z,1014.64
2017-11-20T10:04:36.958Z,1014.60
2017-11-20T10:05:36.949Z,1014.61
2017-11-20T10:06:36.941Z,1014.56
2017-11-20T10:07:36.929Z,1014.58
2017-11-20T10:08:36.922Z,1014.53
2017-11-20T10:09:36.912Z,1014.47
2017-11-20T10:10:36.909Z,1014.51
2017-11-20T10:11:36.904Z,1014.43
2017-11-20T10:12:36.900Z,1014.44
2017-11-20T10:13:36.884Z,1014.44
2017-11-20T10:14:36.876Z,1014.39
2017-11-20T10:15:36.865Z,1014.30
2017-11-20T10:16:36.856Z,1014.39
2017-11-20T10:17:36.848Z,1014.38
2017-11-20T10:18:36.840Z,1014.37
2017-11-20T10:19:36.832Z,1014.34
2017-11-20T10:20:36.824Z,1014.37
2017-11-20T10:21:36.815Z,1014.35
2017-11-20T10:22:36.810Z,1014.40
2017-11-20T10:23:36.804Z,1014.39
2017-11-20T10:24:36.796Z,1014.41
2017-11-20T10:25:36.788Z,1014.45
2017-11-20T10:26:36.779Z,1014.46
2017-11-20T10:27:36.771Z,1014.44
2017-11-20T10:28:36.764Z,1014.44
2017-11-20T10:29:36.753Z,1014.44
2017-11-20T10:30:36.743Z,1014.45
2017-11-20T10:31:36.752Z,1014.40
2017-11-20T10:32:36.727Z,1014.36
2017-11-20T10:33:36.717Z,1014.34
2017-11-20T10:34:36.715Z,1014.30
2017-11-20T10:35:36.703Z,1014.39
2017-11-20T10:36:36.696Z,1014.34
2017-11-20T10:37:36.685Z,1014.34
2017-11-20T10:38:36.682Z,1014.41
2017-11-20T10:39:36.674Z,1014.38
2017-11-20T10:40:36.668Z,1014.35
2017-11-20T10:41:36.742Z,1014.37
2017-11-20T10:42:36.649Z,1014.38
2017-11-20T10:43:36.642Z,1014.38
2017-11-20T10:44:36.635Z,1014.35
2017-11-20T10:45:36.626Z,1014.37
2017-11-20T10:46:36.613Z,1014.35
2017-11-20T10:47:36.607Z,1014.28
2017-11-20T10:48:36.602Z,1014.29
2017-11-20T10:49:36.589Z,1014.32
2017-11-20T10:50:36.584Z,1014.23
2017-11-20T10:51:36.584Z,1014.25
2017-11-20T10:52:36.572Z,1014.27
2017-11-20T10:53:36.557Z,1014.16
2017-11-20T10:54:36.553Z,1014.16
2017-11-20T10:55:36.546Z,1014.17
2017-11-20T10:56:36.539Z,1014.22
2017-11-20T10:57:36.530Z,1014.17
2017-11-20T10:58:36.522Z,1014.20
2017-11-20T10:59:36.514Z,1014.18
2017-11-20T11:00:36.508Z,1014.18
2017-11-20T11:01:36.497Z,1014.13
2017-11-20T11:02:36.484Z,1014.18
2017-11-20T11:03:36.482Z,1014.13
2017-11-20T11:04:36.469Z,1014.07
2017-11-20T11:05:36.461Z,1014.04
2017-11-20T11:06:36.452Z,1013.98
2017-11-20T11:07:36.451Z,1014.00
2017-11-20T11:08:36.437Z,1013.97
2017-11-20T11:09:36.429Z,1013.97
2017-11-20T11:10:36.424Z,1013.95
2017-11-20T11:11:36.416Z,1013.93
2017-11-20T11:12:36.409Z,1013.88
2017-11-20T11:13:36.400Z,1013.90
2017-11-20T11:14:36.388Z,1013.93
2017-11-20T11:15:36.382Z,1013.94
2017-11-20T11:16:36.372Z,1013.88
2017-11-20T11:17:36.362Z,1013.87
2017-11-20T11:18:36.359Z,1013.85
2017-11-20T11:19:36.352Z,1013.89
2017-11-20T11:20:36.342Z,1013.82
2017-11-20T11:21:36.334Z,1013.82
2017-11-20T11:22:36.328Z,1013.82
2017-11-20T11:23:36.316Z,1013.75
2017-11-20T11:24:36.309Z,1013.74
2017-11-20T11:25:36.300Z,1013.71
2017-11-20T11:26:36.287Z,1013.65
2017-11-20T11:27:36.278Z,1013.61
2017-11-20T11:28:36.272Z,1013.63
2017-11-20T11:29:36.262Z,1013.60
2017-11-20T11:30:36.263Z,1013.61
2017-11-20T11:31:36.248Z,1013.63
2017-11-20T11:32:36.238Z,1013.63
2017-11-20T11:33:36.227Z,1013.62
2017-11-20T11:34:36.224Z,1013.58
2017-11-20T11:35:36.216Z,1013.56
2017-11-20T11:36:36.211Z,1013.50
2017-11-20T11:37:36.197Z,1013.45
2017-11-20T11:38:36.638Z,1013.48
2017-11-20T11:39:36.181Z,1013.46
2017-11-20T11:40:36.173Z,1013.39
2017-11-20T11:41:36.163Z,1013.46
2017-11-20T11:42:36.150Z,1013.37
2017-11-20T11:43:36.144Z,1013.36
2017-11-20T11:44:36.136Z,1013.28
2017-11-20T11:45:36.125Z,1013.29
2017-11-20T11:46:36.123Z,1013.30
2017-11-20T11:47:36.107Z,1013.27
2017-11-20T11:48:36.100Z,1013.23
2017-11-20T11:49:36.091Z,1013.24
2017-11-20T11:50:36.085Z,1013.16
2017-11-20T11:51:36.078Z,1013.16
2017-11-20T11:52:36.069Z,1013.13
2017-11-20T11:53:36.059Z,1013.11
2017-11-20T11:54:36.053Z,1013.07
2017-11-20T11:55:36.043Z,1013.05
2017-11-20T11:56:36.034Z,1013.01
2017-11-20T11:57:36.026Z,1012.93
2017-11-20T11:58:36.012Z,1012.88
2017-11-20T11:59:36.005Z,1012.92
2017-11-20T12:00:35.996Z,1012.90
2017-11-20T12:01:35.987Z,1012.89
2017-11-20T12:02:35.978Z,1012.86
2017-11-20T12:03:35.969Z,1012.86
2017-11-20T12:04:35.963Z,1012.78
2017-11-20T12:05:35.952Z,1012.84